sensor_id;sensor_type;location;lat;lon;timestamp;temperature;humidity
37528;DHT22;23372;52.050;4.810;2023-09-19T00:01:06;14.30;99.90
37528;DHT22;23372;52.050;4.810;2023-09-19T00:03:35;14.30;99.90
37528;DHT22;23372;52.050;4.810;2023-09-19T00:06:04;14.30;99.90
37528;DHT22;23372;52.050;4.810;2023-09-19T00:08:33;14.40;99.90
37528;DHT22;23372;52.050;4.810;2023-09-19T00:10:59;14.40;99.90
37528;DHT22;23372;52.050;4.810;2023-09-19T00:13:32;14.50;99.90
37528;DHT22;23372;52.050;4.810;2023-09-19T00:15:59;14.50;99.90
37528;DHT22;23372;52.050;4.810;2023-09-19T00:18:25;14.60;99.90
37528;DHT22;23372;52.050;4.810;2023-09-19T00:20:58;14.60;99.90
37528;DHT22;23372;52.050;4.810;2023-09-19T00:23:24;14.70;99.90
37528;DHT22;23372;52.050;4.810;2023-09-19T00:25:50;14.70;99.90
37528;DHT22;23372;52.050;4.810;2023-09-19T00:28:16;14.60;99.90
37528;DHT22;23372;52.050;4.810;2023-09-19T00:30:44;14.70;99.90
37528;DHT22;23372;52.050;4.810;2023-09-19T00:33:10;14.70;99.90
37528;DHT22;23372;52.050;4.810;2023-09-19T00:35:37;14.60;99.90
37528;DHT22;23372;52.050;4.810;2023-09-19T00:38:02;14.60;99.90
37528;DHT22;23372;52.050;4.810;2023-09-19T00:40:29;14.60;99.90
37528;DHT22;23372;52.050;4.810;2023-09-19T00:42:58;14.60;99.90
37528;DHT22;23372;52.050;4.810;2023-09-19T00:45:27;14.50;99.90
37528;DHT22;23372;52.050;4.810;2023-09-19T00:47:53;14.50;99.90
37528;DHT22;23372;52.050;4.810;2023-09-19T00:50:21;14.40;99.90
37528;DHT22;23372;52.050;4.810;2023-09-19T00:52:53;14.30;99.90
37528;DHT22;23372;52.050;4.810;2023-09-19T00:55:21;14.40;99.90
37528;DHT22;23372;52.050;4.810;2023-09-19T00:57:48;14.40;99.90
37528;DHT22;23372;52.050;4.810;2023-09-19T01:00:15;14.40;99.90
37528;DHT22;23372;52.050;4.810;2023-09-19T01:02:42;14.40;99.90
37528;DHT22;23372;52.050;4.810;2023-09-19T01:05:11;14.30;99.90
37528;DHT22;23372;52.050;4.810;2023-09-19T01:07:38;14.30;99.90
37528;DHT22;23372;52.050;4.810;2023-09-19T01:10:08;14.30;99.90
37528;DHT22;23372;52.050;4.810;2023-09-19T01:21:42;14.10;99.90
37528;DHT22;23372;52.050;4.810;2023-09-19T01:29:50;14.10;99.90
37528;DHT22;23372;52.050;4.810;2023-09-19T01:32:17;14.10;99.90
37528;DHT22;23372;52.050;4.810;2023-09-19T01:34:51;14.20;99.90
37528;DHT22;23372;52.050;4.810;2023-09-19T01:37:18;14.20;99.90
37528;DHT22;23372;52.050;4.810;2023-09-19T01:40:04;14.30;99.90
37528;DHT22;23372;52.050;4.810;2023-09-19T01:43:17;14.30;99.90
37528;DHT22;23372;52.050;4.810;2023-09-19T01:46:12;14.30;99.90
37528;DHT22;23372;52.050;4.810;2023-09-19T01:48:48;14.20;99.90
37528;DHT22;23372;52.050;4.810;2023-09-19T01:51:32;14.20;99.90
37528;DHT22;23372;52.050;4.810;2023-09-19T01:54:10;14.30;99.90
37528;DHT22;23372;52.050;4.810;2023-09-19T01:56:50;14.40;99.90
37528;DHT22;23372;52.050;4.810;2023-09-19T01:59:21;14.70;99.90
37528;DHT22;23372;52.050;4.810;2023-09-19T02:01:49;14.80;99.90
37528;DHT22;23372;52.050;4.810;2023-09-19T02:04:17;14.80;99.90
37528;DHT22;23372;52.050;4.810;2023-09-19T02:06:43;14.70;99.90
37528;DHT22;23372;52.050;4.810;2023-09-19T02:09:08;14.70;99.90
37528;DHT22;23372;52.050;4.810;2023-09-19T02:11:35;14.60;99.90
37528;DHT22;23372;52.050;4.810;2023-09-19T02:14:00;14.50;99.90
37528;DHT22;23372;52.050;4.810;2023-09-19T02:16:26;14.30;99.90
37528;DHT22;23372;52.050;4.810;2023-09-19T02:18:52;14.20;99.90
37528;DHT22;23372;52.050;4.810;2023-09-19T02:21:18;14.20;99.90
37528;DHT22;23372;52.050;4.810;2023-09-19T02:23:44;14.10;99.90
37528;DHT22;23372;52.050;4.810;2023-09-19T02:26:12;14.10;99.90
37528;DHT22;23372;52.050;4.810;2023-09-19T02:28:39;14.10;99.90
37528;DHT22;23372;52.050;4.810;2023-09-19T02:31:04;14.10;99.90
37528;DHT22;23372;52.050;4.810;2023-09-19T02:33:33;14.10;99.90
37528;DHT22;23372;52.050;4.810;2023-09-19T02:35:59;14.20;99.90
37528;DHT22;23372;52.050;4.810;2023-09-19T02:38:25;14.20;99.90
37528;DHT22;23372;52.050;4.810;2023-09-19T02:40:52;14.20;99.90
37528;DHT22;23372;52.050;4.810;2023-09-19T02:43:18;14.20;99.90
37528;DHT22;23372;52.050;4.810;2023-09-19T02:45:45;14.20;99.90
37528;DHT22;23372;52.050;4.810;2023-09-19T02:48:11;14.30;99.90
37528;DHT22;23372;52.050;4.810;2023-09-19T02:50:37;14.20;99.90
37528;DHT22;23372;52.050;4.810;2023-09-19T02:53:05;14.20;99.90
37528;DHT22;23372;52.050;4.810;2023-09-19T02:55:32;14.10;99.90
37528;DHT22;23372;52.050;4.810;2023-09-19T02:57:57;14.10;99.90
37528;DHT22;23372;52.050;4.810;2023-09-19T03:00:23;14.10;99.90
37528;DHT22;23372;52.050;4.810;2023-09-19T03:02:50;14.00;99.90
37528;DHT22;23372;52.050;4.810;2023-09-19T03:05:16;14.00;99.90
37528;DHT22;23372;52.050;4.810;2023-09-19T03:07:41;13.90;99.90
37528;DHT22;23372;52.050;4.810;2023-09-19T03:10:09;13.90;99.90
37528;DHT22;23372;52.050;4.810;2023-09-19T03:12:34;13.80;99.90
37528;DHT22;23372;52.050;4.810;2023-09-19T03:15:00;13.80;99.90
37528;DHT22;23372;52.050;4.810;2023-09-19T03:17:26;13.90;99.90
37528;DHT22;23372;52.050;4.810;2023-09-19T03:19:52;13.90;99.90
37528;DHT22;23372;52.050;4.810;2023-09-19T03:22:19;13.90;99.90
37528;DHT22;23372;52.050;4.810;2023-09-19T03:24:44;14.00;99.90
37528;DHT22;23372;52.050;4.810;2023-09-19T03:27:11;14.00;99.90
37528;DHT22;23372;52.050;4.810;2023-09-19T03:29:41;14.00;99.90
37528;DHT22;23372;52.050;4.810;2023-09-19T03:32:07;14.00;99.90
37528;DHT22;23372;52.050;4.810;2023-09-19T03:34:36;14.10;99.90
37528;DHT22;23372;52.050;4.810;2023-09-19T03:37:03;14.10;99.90
37528;DHT22;23372;52.050;4.810;2023-09-19T03:39:29;14.10;99.90
37528;DHT22;23372;52.050;4.810;2023-09-19T03:41:54;14.10;99.90
37528;DHT22;23372;52.050;4.810;2023-09-19T03:44:20;14.10;99.90
37528;DHT22;23372;52.050;4.810;2023-09-19T03:46:45;14.10;99.90
37528;DHT22;23372;52.050;4.810;2023-09-19T03:49:11;14.00;99.90
37528;DHT22;23372;52.050;4.810;2023-09-19T03:51:36;14.00;99.90
37528;DHT22;23372;52.050;4.810;2023-09-19T03:54:03;14.00;99.90
37528;DHT22;23372;52.050;4.810;2023-09-19T03:56:29;14.00;99.90
37528;DHT22;23372;52.050;4.810;2023-09-19T03:58:55;14.00;99.90
37528;DHT22;23372;52.050;4.810;2023-09-19T04:01:20;14.00;99.90
37528;DHT22;23372;52.050;4.810;2023-09-19T04:03:46;14.00;99.90
37528;DHT22;23372;52.050;4.810;2023-09-19T04:06:13;13.90;99.90
37528;DHT22;23372;52.050;4.810;2023-09-19T04:08:39;13.90;99.90
37528;DHT22;23372;52.050;4.810;2023-09-19T04:11:05;14.00;99.90
37528;DHT22;23372;52.050;4.810;2023-09-19T04:13:30;14.00;99.90
37528;DHT22;23372;52.050;4.810;2023-09-19T04:15:56;13.90;99.90
37528;DHT22;23372;52.050;4.810;2023-09-19T04:18:22;14.00;99.90
37528;DHT22;23372;52.050;4.810;2023-09-19T04:20:52;14.00;99.90
37528;DHT22;23372;52.050;4.810;2023-09-19T04:23:18;14.10;99.90
37528;DHT22;23372;52.050;4.810;2023-09-19T04:25:46;14.10;99.90
37528;DHT22;23372;52.050;4.810;2023-09-19T04:28:11;14.10;99.90
37528;DHT22;23372;52.050;4.810;2023-09-19T04:30:37;14.10;99.90
37528;DHT22;23372;52.050;4.810;2023-09-19T04:33:06;14.10;99.90
37528;DHT22;23372;52.050;4.810;2023-09-19T04:35:32;14.10;99.90
37528;DHT22;23372;52.050;4.810;2023-09-19T04:37:58;14.20;99.90
37528;DHT22;23372;52.050;4.810;2023-09-19T04:40:23;14.10;99.90
37528;DHT22;23372;52.050;4.810;2023-09-19T04:42:57;14.10;99.90
37528;DHT22;23372;52.050;4.810;2023-09-19T04:45:23;14.10;99.90
37528;DHT22;23372;52.050;4.810;2023-09-19T04:47:49;14.10;99.90
37528;DHT22;23372;52.050;4.810;2023-09-19T04:50:15;14.10;99.90
37528;DHT22;23372;52.050;4.810;2023-09-19T04:52:42;14.00;99.90
37528;DHT22;23372;52.050;4.810;2023-09-19T04:55:13;14.00;99.90
37528;DHT22;23372;52.050;4.810;2023-09-19T04:57:46;13.90;99.90
37528;DHT22;23372;52.050;4.810;2023-09-19T05:00:14;14.00;99.90
37528;DHT22;23372;52.050;4.810;2023-09-19T05:02:41;14.00;99.90
37528;DHT22;23372;52.050;4.810;2023-09-19T05:05:08;13.90;99.90
37528;DHT22;23372;52.050;4.810;2023-09-19T05:07:34;13.90;99.90
37528;DHT22;23372;52.050;4.810;2023-09-19T05:10:00;14.00;99.90
37528;DHT22;23372;52.050;4.810;2023-09-19T05:12:28;13.90;99.90
37528;DHT22;23372;52.050;4.810;2023-09-19T05:14:55;14.00;99.90
37528;DHT22;23372;52.050;4.810;2023-09-19T05:17:20;14.00;99.90
37528;DHT22;23372;52.050;4.810;2023-09-19T05:19:46;14.00;99.90
37528;DHT22;23372;52.050;4.810;2023-09-19T05:22:12;14.00;99.90
37528;DHT22;23372;52.050;4.810;2023-09-19T05:24:37;14.10;99.90
37528;DHT22;23372;52.050;4.810;2023-09-19T05:27:04;14.10;99.90
37528;DHT22;23372;52.050;4.810;2023-09-19T05:29:33;14.20;99.90
37528;DHT22;23372;52.050;4.810;2023-09-19T05:31:59;14.20;99.90
37528;DHT22;23372;52.050;4.810;2023-09-19T05:34:24;14.30;99.90
37528;DHT22;23372;52.050;4.810;2023-09-19T05:36:53;14.30;99.90
37528;DHT22;23372;52.050;4.810;2023-09-19T05:39:19;14.30;99.90
37528;DHT22;23372;52.050;4.810;2023-09-19T05:41:45;14.30;99.90
37528;DHT22;23372;52.050;4.810;2023-09-19T05:44:13;14.30;99.90
37528;DHT22;23372;52.050;4.810;2023-09-19T05:46:39;14.30;99.90
37528;DHT22;23372;52.050;4.810;2023-09-19T05:49:05;14.30;99.90
37528;DHT22;23372;52.050;4.810;2023-09-19T05:51:30;14.20;99.90
37528;DHT22;23372;52.050;4.810;2023-09-19T05:53:56;14.20;99.90
37528;DHT22;23372;52.050;4.810;2023-09-19T05:56:21;14.20;99.90
37528;DHT22;23372;52.050;4.810;2023-09-19T05:58:47;14.20;99.90
37528;DHT22;23372;52.050;4.810;2023-09-19T06:01:13;14.30;99.90
37528;DHT22;23372;52.050;4.810;2023-09-19T06:03:38;14.40;99.90
37528;DHT22;23372;52.050;4.810;2023-09-19T06:06:04;14.40;99.90
37528;DHT22;23372;52.050;4.810;2023-09-19T06:08:32;14.40;99.90
37528;DHT22;23372;52.050;4.810;2023-09-19T06:10:59;14.50;99.90
37528;DHT22;23372;52.050;4.810;2023-09-19T06:13:25;14.60;99.90
37528;DHT22;23372;52.050;4.810;2023-09-19T06:15:52;14.60;99.90
37528;DHT22;23372;52.050;4.810;2023-09-19T06:18:17;14.70;99.90
37528;DHT22;23372;52.050;4.810;2023-09-19T06:20:48;14.80;99.90
37528;DHT22;23372;52.050;4.810;2023-09-19T06:23:16;14.80;99.90
37528;DHT22;23372;52.050;4.810;2023-09-19T06:25:42;14.90;99.90
37528;DHT22;23372;52.050;4.810;2023-09-19T06:28:09;14.90;99.90
37528;DHT22;23372;52.050;4.810;2023-09-19T06:30:37;14.90;99.90
37528;DHT22;23372;52.050;4.810;2023-09-19T06:33:05;15.00;99.90
37528;DHT22;23372;52.050;4.810;2023-09-19T06:35:33;15.00;99.90
37528;DHT22;23372;52.050;4.810;2023-09-19T06:37:58;15.10;99.90
37528;DHT22;23372;52.050;4.810;2023-09-19T06:40:24;15.10;99.90
37528;DHT22;23372;52.050;4.810;2023-09-19T06:42:51;15.20;99.90
37528;DHT22;23372;52.050;4.810;2023-09-19T06:45:18;15.20;99.90
37528;DHT22;23372;52.050;4.810;2023-09-19T06:47:48;15.40;99.90
37528;DHT22;23372;52.050;4.810;2023-09-19T06:50:17;15.50;99.90
37528;DHT22;23372;52.050;4.810;2023-09-19T06:52:45;15.70;99.90
37528;DHT22;23372;52.050;4.810;2023-09-19T06:55:12;15.80;99.90
37528;DHT22;23372;52.050;4.810;2023-09-19T06:57:39;16.20;99.90
37528;DHT22;23372;52.050;4.810;2023-09-19T07:00:06;16.50;99.90
37528;DHT22;23372;52.050;4.810;2023-09-19T07:02:41;16.50;99.90
37528;DHT22;23372;52.050;4.810;2023-09-19T07:05:07;16.50;99.90
37528;DHT22;23372;52.050;4.810;2023-09-19T07:07:33;17.00;99.90
37528;DHT22;23372;52.050;4.810;2023-09-19T07:10:03;17.30;99.90
37528;DHT22;23372;52.050;4.810;2023-09-19T07:12:31;17.10;99.90
37528;DHT22;23372;52.050;4.810;2023-09-19T07:14:58;17.40;99.90
37528;DHT22;23372;52.050;4.810;2023-09-19T07:17:23;17.50;99.90
37528;DHT22;23372;52.050;4.810;2023-09-19T07:19:49;17.90;99.90
37528;DHT22;23372;52.050;4.810;2023-09-19T07:22:15;17.80;99.90
37528;DHT22;23372;52.050;4.810;2023-09-19T07:24:41;17.90;99.90
37528;DHT22;23372;52.050;4.810;2023-09-19T07:27:06;17.60;99.90
37528;DHT22;23372;52.050;4.810;2023-09-19T07:29:32;17.70;99.90
37528;DHT22;23372;52.050;4.810;2023-09-19T07:31:58;17.60;99.90
37528;DHT22;23372;52.050;4.810;2023-09-19T07:34:23;18.30;99.90
37528;DHT22;23372;52.050;4.810;2023-09-19T07:36:49;18.50;99.90
37528;DHT22;23372;52.050;4.810;2023-09-19T07:39:15;18.80;99.90
37528;DHT22;23372;52.050;4.810;2023-09-19T07:41:41;19.40;99.90
37528;DHT22;23372;52.050;4.810;2023-09-19T07:44:07;19.30;99.90
37528;DHT22;23372;52.050;4.810;2023-09-19T07:46:33;19.40;99.90
37528;DHT22;23372;52.050;4.810;2023-09-19T07:48:58;19.10;99.90
37528;DHT22;23372;52.050;4.810;2023-09-19T07:51:24;19.00;99.90
37528;DHT22;23372;52.050;4.810;2023-09-19T07:53:49;19.20;99.90
37528;DHT22;23372;52.050;4.810;2023-09-19T07:56:15;18.50;99.90
37528;DHT22;23372;52.050;4.810;2023-09-19T07:58:41;18.80;99.90
37528;DHT22;23372;52.050;4.810;2023-09-19T08:01:10;19.30;99.90
37528;DHT22;23372;52.050;4.810;2023-09-19T08:03:36;19.20;99.90
37528;DHT22;23372;52.050;4.810;2023-09-19T08:06:07;19.30;99.90
37528;DHT22;23372;52.050;4.810;2023-09-19T08:08:33;19.10;99.90
37528;DHT22;23372;52.050;4.810;2023-09-19T08:11:03;19.60;99.90
37528;DHT22;23372;52.050;4.810;2023-09-19T08:13:36;20.10;99.90
37528;DHT22;23372;52.050;4.810;2023-09-19T08:16:03;20.30;99.90
37528;DHT22;23372;52.050;4.810;2023-09-19T08:18:29;20.70;99.90
37528;DHT22;23372;52.050;4.810;2023-09-19T08:20:55;20.60;99.90
37528;DHT22;23372;52.050;4.810;2023-09-19T08:23:24;21.30;99.90
37528;DHT22;23372;52.050;4.810;2023-09-19T08:25:49;20.70;99.90
37528;DHT22;23372;52.050;4.810;2023-09-19T08:28:15;20.30;99.90
37528;DHT22;23372;52.050;4.810;2023-09-19T08:30:45;21.20;99.90
37528;DHT22;23372;52.050;4.810;2023-09-19T08:33:11;21.30;99.90
37528;DHT22;23372;52.050;4.810;2023-09-19T08:35:36;22.30;99.90
37528;DHT22;23372;52.050;4.810;2023-09-19T08:38:05;22.50;99.90
37528;DHT22;23372;52.050;4.810;2023-09-19T08:40:31;22.40;99.90
37528;DHT22;23372;52.050;4.810;2023-09-19T08:42:59;22.10;99.90
37528;DHT22;23372;52.050;4.810;2023-09-19T08:45:25;20.50;99.90
37528;DHT22;23372;52.050;4.810;2023-09-19T08:50:31;20.10;99.90
37528;DHT22;23372;52.050;4.810;2023-09-19T08:53:09;19.60;99.90
37528;DHT22;23372;52.050;4.810;2023-09-19T08:55:36;19.00;99.90
37528;DHT22;23372;52.050;4.810;2023-09-19T08:58:04;18.80;99.90
37528;DHT22;23372;52.050;4.810;2023-09-19T09:00:32;18.40;99.90
37528;DHT22;23372;52.050;4.810;2023-09-19T09:02:58;18.40;99.90
37528;DHT22;23372;52.050;4.810;2023-09-19T09:05:27;18.10;99.90
37528;DHT22;23372;52.050;4.810;2023-09-19T09:07:53;18.20;99.90
37528;DHT22;23372;52.050;4.810;2023-09-19T09:10:22;18.10;99.90
37528;DHT22;23372;52.050;4.810;2023-09-19T09:12:50;17.80;99.90
37528;DHT22;23372;52.050;4.810;2023-09-19T09:15:18;17.90;99.90
37528;DHT22;23372;52.050;4.810;2023-09-19T09:17:47;17.90;99.90
37528;DHT22;23372;52.050;4.810;2023-09-19T09:20:13;17.70;99.90
37528;DHT22;23372;52.050;4.810;2023-09-19T09:22:43;17.50;99.90
37528;DHT22;23372;52.050;4.810;2023-09-19T09:25:15;17.90;99.90
37528;DHT22;23372;52.050;4.810;2023-09-19T09:27:43;18.40;99.90
37528;DHT22;23372;52.050;4.810;2023-09-19T09:30:33;18.60;99.90
37528;DHT22;23372;52.050;4.810;2023-09-19T09:33:13;18.40;99.90
37528;DHT22;23372;52.050;4.810;2023-09-19T09:35:58;18.40;99.90
37528;DHT22;23372;52.050;4.810;2023-09-19T09:38:27;18.40;99.90
37528;DHT22;23372;52.050;4.810;2023-09-19T09:40:55;18.60;99.90
37528;DHT22;23372;52.050;4.810;2023-09-19T09:43:36;18.50;99.90
37528;DHT22;23372;52.050;4.810;2023-09-19T09:46:16;18.40;99.90
37528;DHT22;23372;52.050;4.810;2023-09-19T09:48:45;18.10;99.90
37528;DHT22;23372;52.050;4.810;2023-09-19T09:51:31;18.10;99.90
37528;DHT22;23372;52.050;4.810;2023-09-19T09:54:12;18.00;99.90
37528;DHT22;23372;52.050;4.810;2023-09-19T09:57:01;18.20;99.90
37528;DHT22;23372;52.050;4.810;2023-09-19T09:59:55;18.60;99.90
37528;DHT22;23372;52.050;4.810;2023-09-19T10:02:30;19.00;99.90
37528;DHT22;23372;52.050;4.810;2023-09-19T10:05:19;19.20;99.90
37528;DHT22;23372;52.050;4.810;2023-09-19T10:07:49;19.20;99.90
37528;DHT22;23372;52.050;4.810;2023-09-19T10:10:32;19.40;99.90
37528;DHT22;23372;52.050;4.810;2023-09-19T10:13:11;19.50;99.90
37528;DHT22;23372;52.050;4.810;2023-09-19T10:15:47;19.70;99.90
37528;DHT22;23372;52.050;4.810;2023-09-19T10:18:21;19.90;99.90
37528;DHT22;23372;52.050;4.810;2023-09-19T10:20:48;20.00;99.90
37528;DHT22;23372;52.050;4.810;2023-09-19T10:23:17;19.80;99.90
37528;DHT22;23372;52.050;4.810;2023-09-19T10:25:49;19.50;99.90
37528;DHT22;23372;52.050;4.810;2023-09-19T10:28:16;19.70;99.90
37528;DHT22;23372;52.050;4.810;2023-09-19T10:30:48;19.60;99.90
37528;DHT22;23372;52.050;4.810;2023-09-19T10:33:17;19.80;99.90
37528;DHT22;23372;52.050;4.810;2023-09-19T10:35:45;20.00;99.90
37528;DHT22;23372;52.050;4.810;2023-09-19T10:38:12;20.00;99.90
37528;DHT22;23372;52.050;4.810;2023-09-19T10:40:39;19.80;99.90
37528;DHT22;23372;52.050;4.810;2023-09-19T10:43:13;19.80;99.90
37528;DHT22;23372;52.050;4.810;2023-09-19T10:45:40;20.00;99.90
37528;DHT22;23372;52.050;4.810;2023-09-19T10:48:06;19.90;99.90
37528;DHT22;23372;52.050;4.810;2023-09-19T10:50:53;19.40;99.90
37528;DHT22;23372;52.050;4.810;2023-09-19T10:53:20;19.60;99.90
37528;DHT22;23372;52.050;4.810;2023-09-19T10:55:52;20.20;99.90
37528;DHT22;23372;52.050;4.810;2023-09-19T10:58:26;20.40;99.90
37528;DHT22;23372;52.050;4.810;2023-09-19T11:00:57;20.10;99.90
37528;DHT22;23372;52.050;4.810;2023-09-19T11:03:30;19.90;99.90
37528;DHT22;23372;52.050;4.810;2023-09-19T11:06:14;19.70;99.90
37528;DHT22;23372;52.050;4.810;2023-09-19T11:08:58;19.70;99.90
37528;DHT22;23372;52.050;4.810;2023-09-19T11:11:48;19.90;99.90
37528;DHT22;23372;52.050;4.810;2023-09-19T11:25:41;19.50;99.90
37528;DHT22;23372;52.050;4.810;2023-09-19T11:30:47;19.30;99.90
37528;DHT22;23372;52.050;4.810;2023-09-19T11:36:00;19.60;99.90
37528;DHT22;23372;52.050;4.810;2023-09-19T11:43:52;19.60;99.90
37528;DHT22;23372;52.050;4.810;2023-09-19T11:46:20;19.20;99.90
37528;DHT22;23372;52.050;4.810;2023-09-19T11:48:53;19.10;99.90
37528;DHT22;23372;52.050;4.810;2023-09-19T11:51:23;19.00;99.90
37528;DHT22;23372;52.050;4.810;2023-09-19T11:53:52;18.90;99.90
37528;DHT22;23372;52.050;4.810;2023-09-19T11:56:20;18.80;99.90
37528;DHT22;23372;52.050;4.810;2023-09-19T11:58:50;18.60;99.90
37528;DHT22;23372;52.050;4.810;2023-09-19T12:01:30;18.60;99.90
37528;DHT22;23372;52.050;4.810;2023-09-19T12:03:58;18.40;99.90
37528;DHT22;23372;52.050;4.810;2023-09-19T12:06:25;18.40;99.90
37528;DHT22;23372;52.050;4.810;2023-09-19T12:08:51;18.30;99.90
37528;DHT22;23372;52.050;4.810;2023-09-19T12:11:20;18.40;99.90
37528;DHT22;23372;52.050;4.810;2023-09-19T12:13:47;18.60;99.90
37528;DHT22;23372;52.050;4.810;2023-09-19T12:16:17;18.60;99.90
37528;DHT22;23372;52.050;4.810;2023-09-19T12:18:47;18.60;99.90
37528;DHT22;23372;52.050;4.810;2023-09-19T12:21:31;18.60;99.90
37528;DHT22;23372;52.050;4.810;2023-09-19T12:24:11;18.60;99.90
37528;DHT22;23372;52.050;4.810;2023-09-19T12:26:43;19.00;99.90
37528;DHT22;23372;52.050;4.810;2023-09-19T12:29:19;19.30;99.90
37528;DHT22;23372;52.050;4.810;2023-09-19T12:31:49;19.40;99.90
37528;DHT22;23372;52.050;4.810;2023-09-19T12:34:22;19.60;99.90
37528;DHT22;23372;52.050;4.810;2023-09-19T12:36:48;19.70;99.90
37528;DHT22;23372;52.050;4.810;2023-09-19T12:39:24;19.60;99.90
37528;DHT22;23372;52.050;4.810;2023-09-19T12:41:52;19.40;99.90
37528;DHT22;23372;52.050;4.810;2023-09-19T12:44:19;19.30;99.90
37528;DHT22;23372;52.050;4.810;2023-09-19T12:46:44;19.40;99.90
37528;DHT22;23372;52.050;4.810;2023-09-19T12:49:17;19.40;99.90
37528;DHT22;23372;52.050;4.810;2023-09-19T12:51:43;19.50;99.90
37528;DHT22;23372;52.050;4.810;2023-09-19T12:54:09;19.60;99.90
37528;DHT22;23372;52.050;4.810;2023-09-19T12:56:43;19.70;99.90
37528;DHT22;23372;52.050;4.810;2023-09-19T12:59:13;19.60;99.90
37528;DHT22;23372;52.050;4.810;2023-09-19T13:01:40;19.80;99.90
37528;DHT22;23372;52.050;4.810;2023-09-19T13:04:19;19.90;99.90
37528;DHT22;23372;52.050;4.810;2023-09-19T13:06:49;20.00;99.90
37528;DHT22;23372;52.050;4.810;2023-09-19T13:09:19;20.10;99.90
37528;DHT22;23372;52.050;4.810;2023-09-19T13:11:53;20.10;99.90
37528;DHT22;23372;52.050;4.810;2023-09-19T13:14:23;19.90;99.90
37528;DHT22;23372;52.050;4.810;2023-09-19T13:17:08;19.70;99.90
37528;DHT22;23372;52.050;4.810;2023-09-19T13:19:48;19.50;99.90
37528;DHT22;23372;52.050;4.810;2023-09-19T13:22:37;19.40;99.90
37528;DHT22;23372;52.050;4.810;2023-09-19T13:25:08;19.40;99.90
37528;DHT22;23372;52.050;4.810;2023-09-19T13:27:39;19.40;99.90
37528;DHT22;23372;52.050;4.810;2023-09-19T13:30:05;19.30;99.90
37528;DHT22;23372;52.050;4.810;2023-09-19T13:32:32;19.10;99.90
37528;DHT22;23372;52.050;4.810;2023-09-19T13:34:58;19.00;99.90
37528;DHT22;23372;52.050;4.810;2023-09-19T13:37:24;19.00;99.90
37528;DHT22;23372;52.050;4.810;2023-09-19T13:39:49;19.10;99.90
37528;DHT22;23372;52.050;4.810;2023-09-19T13:42:15;19.20;99.90
37528;DHT22;23372;52.050;4.810;2023-09-19T13:44:41;19.30;99.90
37528;DHT22;23372;52.050;4.810;2023-09-19T13:47:07;19.20;99.90
37528;DHT22;23372;52.050;4.810;2023-09-19T13:49:38;19.10;99.90
37528;DHT22;23372;52.050;4.810;2023-09-19T13:52:04;19.00;99.90
37528;DHT22;23372;52.050;4.810;2023-09-19T13:54:31;18.90;99.90
37528;DHT22;23372;52.050;4.810;2023-09-19T13:56:56;18.90;99.90
37528;DHT22;23372;52.050;4.810;2023-09-19T13:59:22;18.80;99.90
37528;DHT22;23372;52.050;4.810;2023-09-19T14:01:49;18.80;99.90
37528;DHT22;23372;52.050;4.810;2023-09-19T14:04:16;18.80;99.90
37528;DHT22;23372;52.050;4.810;2023-09-19T14:06:42;18.80;99.90
37528;DHT22;23372;52.050;4.810;2023-09-19T14:09:08;18.70;99.90
37528;DHT22;23372;52.050;4.810;2023-09-19T14:11:35;18.70;99.90
37528;DHT22;23372;52.050;4.810;2023-09-19T14:14:01;18.70;99.90
37528;DHT22;23372;52.050;4.810;2023-09-19T14:16:26;18.60;99.90
37528;DHT22;23372;52.050;4.810;2023-09-19T14:18:55;18.60;99.90
37528;DHT22;23372;52.050;4.810;2023-09-19T14:21:20;18.60;99.90
37528;DHT22;23372;52.050;4.810;2023-09-19T14:23:46;18.60;99.90
37528;DHT22;23372;52.050;4.810;2023-09-19T14:26:12;18.60;99.90
37528;DHT22;23372;52.050;4.810;2023-09-19T14:28:37;18.40;99.90
37528;DHT22;23372;52.050;4.810;2023-09-19T14:31:08;18.30;99.90
37528;DHT22;23372;52.050;4.810;2023-09-19T14:33:34;18.30;99.90
37528;DHT22;23372;52.050;4.810;2023-09-19T14:36:03;18.20;99.90
37528;DHT22;23372;52.050;4.810;2023-09-19T14:38:32;18.20;99.90
37528;DHT22;23372;52.050;4.810;2023-09-19T14:41:02;18.10;99.90
37528;DHT22;23372;52.050;4.810;2023-09-19T14:43:29;18.10;99.90
37528;DHT22;23372;52.050;4.810;2023-09-19T14:45:56;18.10;99.90
37528;DHT22;23372;52.050;4.810;2023-09-19T14:48:23;18.10;99.90
37528;DHT22;23372;52.050;4.810;2023-09-19T14:50:51;18.30;99.90
37528;DHT22;23372;52.050;4.810;2023-09-19T14:53:17;18.30;99.90
37528;DHT22;23372;52.050;4.810;2023-09-19T14:55:44;18.30;99.90
37528;DHT22;23372;52.050;4.810;2023-09-19T14:58:10;18.30;99.90
37528;DHT22;23372;52.050;4.810;2023-09-19T15:00:37;18.40;99.90
37528;DHT22;23372;52.050;4.810;2023-09-19T15:03:03;18.40;99.90
37528;DHT22;23372;52.050;4.810;2023-09-19T15:05:29;18.40;99.90
37528;DHT22;23372;52.050;4.810;2023-09-19T15:07:55;18.30;99.90
37528;DHT22;23372;52.050;4.810;2023-09-19T15:10:22;18.30;99.90
37528;DHT22;23372;52.050;4.810;2023-09-19T15:12:48;18.30;99.90
37528;DHT22;23372;52.050;4.810;2023-09-19T15:15:13;18.30;99.90
37528;DHT22;23372;52.050;4.810;2023-09-19T15:17:39;18.30;99.90
37528;DHT22;23372;52.050;4.810;2023-09-19T15:20:06;18.30;99.90
37528;DHT22;23372;52.050;4.810;2023-09-19T15:22:35;18.30;99.90
37528;DHT22;23372;52.050;4.810;2023-09-19T15:25:02;18.30;99.90
37528;DHT22;23372;52.050;4.810;2023-09-19T15:27:29;18.30;99.90
37528;DHT22;23372;52.050;4.810;2023-09-19T15:29:56;18.30;99.90
37528;DHT22;23372;52.050;4.810;2023-09-19T15:32:24;18.30;99.90
37528;DHT22;23372;52.050;4.810;2023-09-19T15:34:49;18.40;99.90
37528;DHT22;23372;52.050;4.810;2023-09-19T15:37:15;18.40;99.90
37528;DHT22;23372;52.050;4.810;2023-09-19T15:39:40;18.40;99.90
37528;DHT22;23372;52.050;4.810;2023-09-19T15:42:06;18.40;99.90
37528;DHT22;23372;52.050;4.810;2023-09-19T15:44:32;18.50;99.90
37528;DHT22;23372;52.050;4.810;2023-09-19T15:46:58;18.50;99.90
37528;DHT22;23372;52.050;4.810;2023-09-19T15:49:24;18.50;99.90
37528;DHT22;23372;52.050;4.810;2023-09-19T15:51:50;18.50;99.90
37528;DHT22;23372;52.050;4.810;2023-09-19T15:54:16;18.50;99.90
37528;DHT22;23372;52.050;4.810;2023-09-19T15:56:43;18.50;99.90
37528;DHT22;23372;52.050;4.810;2023-09-19T15:59:08;18.40;99.90
37528;DHT22;23372;52.050;4.810;2023-09-19T16:01:41;18.40;99.90
37528;DHT22;23372;52.050;4.810;2023-09-19T16:04:08;18.30;99.90
37528;DHT22;23372;52.050;4.810;2023-09-19T16:06:35;18.30;99.90
37528;DHT22;23372;52.050;4.810;2023-09-19T16:09:01;18.20;99.90
37528;DHT22;23372;52.050;4.810;2023-09-19T16:11:31;17.90;99.90
37528;DHT22;23372;52.050;4.810;2023-09-19T16:13:57;17.80;99.90
37528;DHT22;23372;52.050;4.810;2023-09-19T16:16:25;17.70;99.90
37528;DHT22;23372;52.050;4.810;2023-09-19T16:18:54;17.60;99.90